createdAt,value
2017-11-07T00:00:04.667Z,0
2017-11-07T00:01:17.340Z,0
2017-11-07T00:02:30.987Z,0
2017-11-07T00:03:44.874Z,0
2017-11-07T00:04:57.923Z,0
2017-11-07T00:06:12.074Z,0
2017-11-07T00:07:24.710Z,0
2017-11-07T00:08:38.805Z,0
2017-11-07T00:09:52.485Z,0
2017-11-07T00:11:05.691Z,0
2017-11-07T00:12:19.091Z,0
2017-11-07T00:13:31.057Z,0
2017-11-07T00:14:44.642Z,0
2017-11-07T00:15:57.551Z,0
2017-11-07T00:17:11.204Z,0
2017-11-07T00:18:24.034Z,0
2017-11-07T00:19:37.362Z,0
2017-11-07T00:20:51.167Z,0
2017-11-07T00:22:04.905Z,0
2017-11-07T00:23:18.563Z,0
2017-11-07T00:24:31.957Z,0
2017-11-07T00:25:45.892Z,0
2017-11-07T00:26:58.387Z,0
2017-11-07T00:28:11.835Z,0
2017-11-07T00:29:24.980Z,0
2017-11-07T00:30:37.550Z,0
2017-11-07T00:31:50.849Z,0
2017-11-07T00:33:04.381Z,0
2017-11-07T00:34:17.530Z,0
2017-11-07T00:35:30.169Z,0
2017-11-07T00:36:43.185Z,0
2017-11-07T00:37:55.573Z,0
2017-11-07T00:39:09.296Z,0
2017-11-07T00:40:23.114Z,0
2017-11-07T00:41:35.272Z,0
2017-11-07T00:42:47.748Z,0
2017-11-07T00:44:00.914Z,0
2017-11-07T00:45:14.742Z,0
2017-11-07T00:46:27.283Z,0
2017-11-07T00:47:39.745Z,0
2017-11-07T00:48:53.142Z,0
2017-11-07T00:50:05.909Z,0
2017-11-07T00:51:19.253Z,0
2017-11-07T00:52:32.017Z,0
2017-11-07T00:53:45.369Z,0
2017-11-07T00:54:58.743Z,0
2017-11-07T00:56:12.091Z,0
2017-11-07T00:57:24.827Z,0
2017-11-07T00:58:38.161Z,0
2017-11-07T00:59:50.414Z,0
2017-11-07T01:01:03.209Z,0
2017-11-07T01:02:16.013Z,0
2017-11-07T01:03:28.826Z,0
2017-11-07T01:04:41.084Z,0
2017-11-07T01:06:57.469Z,0
2017-11-07T01:08:09.916Z,0
2017-11-07T01:09:22.158Z,0
2017-11-07T01:10:34.908Z,0
2017-11-07T01:11:47.131Z,0
2017-11-07T01:12:59.335Z,0
2017-11-07T01:14:12.622Z,0
2017-11-07T01:15:25.406Z,0
2017-11-07T01:16:38.213Z,0
2017-11-07T01:17:50.998Z,0
2017-11-07T01:19:03.819Z,0
2017-11-07T01:20:16.660Z,0
2017-11-07T01:21:29.934Z,0
2017-11-07T01:22:42.220Z,0
2017-11-07T01:23:55.566Z,0
2017-11-07T01:25:08.292Z,0
2017-11-07T01:26:21.003Z,0
2017-11-07T01:27:33.223Z,0
2017-11-07T01:28:45.966Z,0
2017-11-07T01:29:59.295Z,0
2017-11-07T01:31:12.619Z,0
2017-11-07T01:32:25.392Z,0
2017-11-07T01:33:38.174Z,0
2017-11-07T01:34:51.510Z,0
2017-11-07T01:36:04.779Z,0
2017-11-07T01:37:18.036Z,0
2017-11-07T01:38:30.772Z,0
2017-11-07T01:39:43.597Z,0
2017-11-07T01:40:56.879Z,0
2017-11-07T01:42:10.122Z,0
2017-11-07T01:43:22.372Z,0
2017-11-07T01:44:35.174Z,0
2017-11-07T01:45:48.489Z,0
2017-11-07T01:47:01.279Z,0
2017-11-07T01:48:14.109Z,0
2017-11-07T01:49:27.357Z,0
2017-11-07T01:50:40.663Z,0
2017-11-07T01:51:52.330Z,0
2017-11-07T01:53:05.630Z,0
2017-11-07T01:54:18.373Z,0
2017-11-07T01:55:31.105Z,0
2017-11-07T01:56:44.405Z,0
2017-11-07T01:57:57.188Z,0
2017-11-07T01:59:09.908Z,0
2017-11-07T02:00:23.215Z,0
2017-11-07T02:01:35.983Z,0
2017-11-07T02:02:49.236Z,0
2017-11-07T02:04:01.452Z,0
2017-11-07T02:05:14.730Z,0
2017-11-07T02:06:28.124Z,0
2017-11-07T02:07:41.536Z,0
2017-11-07T02:08:54.474Z,0
2017-11-07T02:10:07.234Z,0
2017-11-07T02:11:19.974Z,0
2017-11-07T02:12:33.256Z,0
2017-11-07T02:13:46.568Z,0
2017-11-07T02:14:59.285Z,0
2017-11-07T02:16:11.483Z,0
2017-11-07T02:17:24.202Z,0
2017-11-07T02:18:36.953Z,0
2017-11-07T02:19:49.653Z,0
2017-11-07T02:21:01.888Z,0
2017-11-07T02:22:14.624Z,0
2017-11-07T02:23:27.446Z,0
2017-11-07T02:24:40.782Z,0
2017-11-07T02:25:54.014Z,0
2017-11-07T02:27:07.331Z,0
2017-11-07T02:28:20.070Z,0
2017-11-07T02:29:32.278Z,0
2017-11-07T02:30:45.612Z,0
2017-11-07T02:31:59.094Z,0
2017-11-07T02:33:11.905Z,0
2017-11-07T02:34:24.140Z,0
2017-11-07T02:35:36.901Z,0
2017-11-07T02:36:49.644Z,0
2017-11-07T02:38:02.959Z,0
2017-11-07T02:39:16.239Z,0
2017-11-07T02:40:27.930Z,0
2017-11-07T02:41:41.250Z,0
2017-11-07T02:42:54.011Z,0
2017-11-07T02:44:07.334Z,0
2017-11-07T02:45:20.144Z,0
2017-11-07T02:46:32.388Z,0
2017-11-07T02:47:45.148Z,0
2017-11-07T02:48:57.319Z,0
2017-11-07T02:50:10.614Z,0
2017-11-07T02:51:22.302Z,0
2017-11-07T02:52:35.627Z,0
2017-11-07T02:53:48.886Z,0
2017-11-07T02:55:01.636Z,0
2017-11-07T02:56:13.868Z,0
2017-11-07T02:57:27.138Z,0
2017-11-07T02:58:40.446Z,0
2017-11-07T02:59:53.456Z,0
2017-11-07T03:01:06.794Z,0
2017-11-07T03:02:19.569Z,0
2017-11-07T03:03:32.462Z,0
2017-11-07T03:04:45.205Z,0
2017-11-07T03:05:58.003Z,0
2017-11-07T03:07:11.317Z,0
2017-11-07T03:08:24.103Z,0
2017-11-07T03:09:36.847Z,0
2017-11-07T03:10:49.637Z,0
2017-11-07T03:12:02.379Z,0
2017-11-07T03:13:15.122Z,0
2017-11-07T03:14:27.335Z,0
2017-11-07T03:15:40.595Z,0
2017-11-07T03:16:52.828Z,0
2017-11-07T03:18:05.120Z,0
2017-11-07T03:19:18.426Z,0
2017-11-07T03:20:31.730Z,0
2017-11-07T03:21:44.106Z,0
2017-11-07T03:22:57.735Z,0
2017-11-07T03:24:10.450Z,0
2017-11-07T03:25:24.363Z,0
2017-11-07T03:26:37.673Z,0
2017-11-07T03:27:49.892Z,0
2017-11-07T03:29:01.577Z,0
2017-11-07T03:30:14.350Z,0
2017-11-07T03:31:27.626Z,0
2017-11-07T03:32:40.929Z,0
2017-11-07T03:33:54.237Z,0
2017-11-07T03:35:06.426Z,0
2017-11-07T03:36:19.394Z,0
2017-11-07T03:37:32.160Z,0
2017-11-07T03:38:44.904Z,0
2017-11-07T03:39:57.641Z,0
2017-11-07T03:41:10.396Z,0
2017-11-07T03:42:23.195Z,0
2017-11-07T03:43:36.510Z,0
2017-11-07T03:44:49.249Z,0
2017-11-07T03:46:02.535Z,0
2017-11-07T03:47:14.770Z,0
2017-11-07T03:48:26.476Z,0
2017-11-07T03:49:38.671Z,0
2017-11-07T03:50:51.414Z,0
2017-11-07T03:52:03.645Z,0
2017-11-07T03:53:16.376Z,0
2017-11-07T03:54:28.599Z,0
2017-11-07T03:55:40.819Z,0
2017-11-07T03:56:54.133Z,0
2017-11-07T03:58:06.898Z,0
2017-11-07T03:59:19.878Z,0
2017-11-07T04:00:33.203Z,0
2017-11-07T04:01:45.982Z,0
2017-11-07T04:02:59.302Z,0
2017-11-07T04:04:12.051Z,0
2017-11-07T04:05:24.277Z,0
2017-11-07T04:06:37.028Z,0
2017-11-07T04:07:50.355Z,0
2017-11-07T04:09:03.163Z,0
2017-11-07T04:10:15.902Z,0
2017-11-07T04:11:28.124Z,0
2017-11-07T04:12:41.398Z,0
2017-11-07T04:13:54.132Z,0
2017-11-07T04:15:07.481Z,0
2017-11-07T04:16:20.241Z,0
2017-11-07T04:17:33.003Z,0
2017-11-07T04:18:46.310Z,0
2017-11-07T04:19:59.577Z,0
2017-11-07T04:21:12.026Z,0
2017-11-07T04:22:25.528Z,0
2017-11-07T04:23:38.491Z,0
2017-11-07T04:24:50.804Z,0
2017-11-07T04:26:03.018Z,0
2017-11-07T04:27:16.336Z,0
2017-11-07T04:28:28.083Z,0
2017-11-07T04:29:40.888Z,0
2017-11-07T04:30:54.203Z,0
2017-11-07T04:32:06.415Z,0
2017-11-07T04:33:19.163Z,0
2017-11-07T04:34:32.514Z,0
2017-11-07T04:35:45.241Z,0
2017-11-07T04:36:58.487Z,0
2017-11-07T04:38:10.932Z,0
2017-11-07T04:39:23.665Z,0
2017-11-07T04:40:35.902Z,0
2017-11-07T04:41:48.670Z,0
2017-11-07T04:43:02.000Z,0
2017-11-07T04:44:14.199Z,0
2017-11-07T04:45:26.943Z,0
2017-11-07T04:46:40.243Z,0
2017-11-07T04:47:53.550Z,0
2017-11-07T04:49:06.856Z,0
2017-11-07T04:50:19.091Z,0
2017-11-07T04:51:31.351Z,0
2017-11-07T04:52:44.130Z,0
2017-11-07T04:53:56.409Z,0
2017-11-07T04:55:09.205Z,0
2017-11-07T04:56:22.460Z,0
2017-11-07T04:57:35.221Z,0
2017-11-07T04:58:48.483Z,0
2017-11-07T05:00:01.244Z,0
2017-11-07T05:01:14.536Z,0
2017-11-07T05:02:27.255Z,0
2017-11-07T05:03:40.021Z,0
2017-11-07T05:04:51.732Z,0
2017-11-07T05:06:05.024Z,0
2017-11-07T05:07:17.262Z,0
2017-11-07T05:08:30.568Z,0
2017-11-07T05:09:43.342Z,0
2017-11-07T05:10:56.123Z,0
2017-11-07T05:12:08.359Z,0
2017-11-07T05:13:21.117Z,0
2017-11-07T05:14:34.433Z,0
2017-11-07T05:15:47.237Z,0
2017-11-07T05:17:00.584Z,0
2017-11-07T05:18:13.523Z,0
2017-11-07T05:19:26.836Z,0
2017-11-07T05:20:39.112Z,0
2017-11-07T05:21:52.425Z,0
2017-11-07T05:23:05.202Z,0
2017-11-07T05:24:18.455Z,0
2017-11-07T05:25:31.722Z,0
2017-11-07T05:26:45.005Z,0
2017-11-07T05:27:58.294Z,0
2017-11-07T05:29:11.606Z,0
2017-11-07T05:30:24.003Z,0
2017-11-07T05:31:37.306Z,0
2017-11-07T05:32:50.059Z,0
2017-11-07T05:34:03.353Z,0
2017-11-07T05:35:16.640Z,0
2017-11-07T05:36:28.896Z,0
2017-11-07T05:37:41.625Z,0
2017-11-07T05:38:54.870Z,0
2017-11-07T05:40:07.641Z,0
2017-11-07T05:41:19.922Z,0
2017-11-07T05:42:33.200Z,0
2017-11-07T05:43:46.505Z,0
2017-11-07T05:44:59.784Z,0
2017-11-07T05:46:12.560Z,0
2017-11-07T05:47:25.360Z,0
2017-11-07T05:48:38.641Z,0
2017-11-07T05:49:50.842Z,0
2017-11-07T05:51:03.583Z,0
2017-11-07T05:52:16.882Z,0
2017-11-07T05:53:29.120Z,0
2017-11-07T05:54:41.342Z,0
2017-11-07T05:55:53.593Z,0
2017-11-07T05:57:05.781Z,0
2017-11-07T05:58:19.082Z,0
2017-11-07T05:59:32.309Z,0
2017-11-07T06:00:45.563Z,0
2017-11-07T06:01:59.318Z,0
2017-11-07T06:03:12.577Z,0
2017-11-07T06:04:26.921Z,0
2017-11-07T06:05:39.846Z,0
2017-11-07T06:06:53.478Z,0
2017-11-07T06:08:07.117Z,0
2017-11-07T06:09:20.323Z,0
2017-11-07T06:10:34.002Z,0
2017-11-07T06:11:46.835Z,0
2017-11-07T06:13:00.187Z,0
2017-11-07T06:14:13.479Z,0
2017-11-07T06:15:26.514Z,0
2017-11-07T06:16:39.885Z,0
2017-11-07T06:17:53.174Z,0
2017-11-07T06:19:06.501Z,0
2017-11-07T06:20:19.254Z,0
2017-11-07T06:21:32.565Z,0
2017-11-07T06:22:44.849Z,0
2017-11-07T06:23:58.187Z,0
2017-11-07T06:25:10.429Z,0
2017-11-07T06:26:22.970Z,0
2017-11-07T06:27:36.802Z,0
2017-11-07T06:28:48.928Z,0
2017-11-07T06:30:02.584Z,0
2017-11-07T06:31:15.892Z,0
2017-11-07T06:32:28.674Z,0
2017-11-07T06:33:41.929Z,0
2017-11-07T06:34:54.570Z,0
2017-11-07T06:36:07.856Z,0
2017-11-07T06:37:21.994Z,0
2017-11-07T06:38:34.792Z,0
2017-11-07T06:39:48.941Z,0
2017-11-07T06:41:03.130Z,0
2017-11-07T06:42:16.338Z,0
2017-11-07T06:43:30.429Z,0
2017-11-07T06:44:43.892Z,0
2017-11-07T06:45:57.916Z,0
2017-11-07T06:47:12.152Z,0
2017-11-07T06:48:26.083Z,0
2017-11-07T06:49:39.656Z,0
2017-11-07T06:50:52.406Z,0
2017-11-07T06:52:05.536Z,0
2017-11-07T06:53:19.018Z,0
2017-11-07T06:54:33.199Z,0
2017-11-07T06:55:46.270Z,0
2017-11-07T06:56:59.887Z,0
2017-11-07T06:58:12.354Z,0
2017-11-07T06:59:26.032Z,0
2017-11-07T07:00:40.117Z,0
2017-11-07T07:01:53.844Z,0
2017-11-07T07:03:06.821Z,0
2017-11-07T07:04:21.048Z,0
2017-11-07T07:05:33.900Z,0
2017-11-07T07:06:47.247Z,0
2017-11-07T07:07:59.924Z,0
2017-11-07T07:09:13.957Z,0
2017-11-07T07:10:28.079Z,0
2017-11-07T07:11:41.726Z,0
2017-11-07T07:12:54.964Z,0
2017-11-07T07:14:08.361Z,0
2017-11-07T07:15:22.119Z,0
2017-11-07T07:16:36.073Z,0
2017-11-07T07:17:50.116Z,0
2017-11-07T07:19:03.972Z,0
2017-11-07T07:20:17.439Z,0
2017-11-07T07:21:31.651Z,0
2017-11-07T07:22:45.721Z,0
2017-11-07T07:23:59.068Z,0
2017-11-07T07:25:13.068Z,0
2017-11-07T07:26:26.825Z,0
2017-11-07T07:27:40.105Z,0
2017-11-07T07:28:54.185Z,0
2017-11-07T07:30:07.439Z,0
2017-11-07T07:31:21.472Z,0
2017-11-07T07:32:35.380Z,0
2017-11-07T07:33:49.134Z,0
2017-11-07T07:35:02.344Z,0
2017-11-07T07:36:16.362Z,0
2017-11-07T07:37:29.105Z,0
2017-11-07T07:38:42.004Z,0
2017-11-07T07:39:54.971Z,0
2017-11-07T07:41:08.239Z,0
2017-11-07T07:42:20.959Z,0
2017-11-07T07:43:33.770Z,0
2017-11-07T07:44:47.072Z,0
2017-11-07T07:45:59.889Z,0
2017-11-07T07:47:12.837Z,0
2017-11-07T07:48:26.595Z,0
2017-11-07T07:49:40.434Z,0
2017-11-07T07:50:54.332Z,4
2017-11-07T07:52:07.465Z,0
2017-11-07T07:53:20.302Z,0
2017-11-07T07:54:33.247Z,4
2017-11-07T07:55:46.162Z,4
2017-11-07T07:56:58.441Z,4
2017-11-07T07:58:11.216Z,8
2017-11-07T07:59:23.975Z,4
2017-11-07T08:00:35.670Z,8
2017-11-07T08:01:48.420Z,12
2017-11-07T08:03:01.817Z,16
2017-11-07T08:04:14.689Z,20
2017-11-07T08:05:27.463Z,32
2017-11-07T08:06:40.178Z,40
2017-11-07T08:07:52.914Z,60
2017-11-07T08:09:05.723Z,76
2017-11-07T08:10:18.514Z,88
2017-11-07T08:11:31.770Z,100
2017-11-07T08:12:44.747Z,116
2017-11-07T08:13:58.022Z,136
2017-11-07T08:15:10.246Z,160
2017-11-07T08:16:21.928Z,188
2017-11-07T08:17:34.262Z,224
2017-11-07T08:18:47.000Z,260
2017-11-07T08:20:00.288Z,308
2017-11-07T08:21:13.555Z,376
2017-11-07T08:22:26.340Z,452
2017-11-07T08:23:39.616Z,544
2017-11-07T08:24:52.378Z,644
2017-11-07T08:26:05.143Z,756
2017-11-07T08:27:17.393Z,880
2017-11-07T08:28:29.619Z,1020
2017-11-07T08:29:42.397Z,1180
2017-11-07T08:30:55.672Z,1348
2017-11-07T08:32:07.343Z,1516
2017-11-07T08:33:20.098Z,1712
2017-11-07T08:34:32.845Z,1892
2017-11-07T08:35:45.588Z,2072
2017-11-07T08:36:59.188Z,2164
2017-11-07T08:38:12.224Z,2280
2017-11-07T08:39:25.006Z,2404
2017-11-07T08:40:38.282Z,2576
2017-11-07T08:41:50.985Z,2708
2017-11-07T08:43:04.314Z,2776
2017-11-07T08:44:17.627Z,2848
2017-11-07T08:45:30.381Z,2912
2017-11-07T08:46:43.133Z,2968
2017-11-07T08:47:56.398Z,3000
2017-11-07T08:49:09.676Z,3004
2017-11-07T08:50:22.436Z,3156
2017-11-07T08:51:34.686Z,3328
2017-11-07T08:52:47.426Z,3620
2017-11-07T08:54:00.680Z,4044
2017-11-07T08:55:13.466Z,4328
2017-11-07T08:56:26.222Z,4416
2017-11-07T08:57:39.529Z,4488
2017-11-07T08:58:52.874Z,4720
2017-11-07T09:00:05.688Z,5120
2017-11-07T09:01:18.479Z,5564
2017-11-07T09:02:30.681Z,5812
2017-11-07T09:03:43.444Z,5932
2017-11-07T09:04:56.903Z,6124
2017-11-07T09:06:10.417Z,6588
2017-11-07T09:07:24.058Z,7608
2017-11-07T09:08:36.874Z,8488
2017-11-07T09:09:50.412Z,8476
2017-11-07T09:11:04.276Z,8744
2017-11-07T09:12:17.659Z,9540
2017-11-07T09:13:31.005Z,9992
2017-11-07T09:14:44.625Z,10468
2017-11-07T09:15:58.353Z,11864
2017-11-07T09:17:11.727Z,9940
2017-11-07T09:18:25.361Z,12220
2017-11-07T09:19:38.471Z,14304
2017-11-07T09:20:51.468Z,9820
2017-11-07T09:22:04.865Z,9728
2017-11-07T09:23:16.054Z,10456
2017-11-07T09:24:28.332Z,11448
2017-11-07T09:25:41.365Z,11512
2017-11-07T09:26:54.905Z,10984
2017-11-07T09:28:08.433Z,11064
2017-11-07T09:29:21.549Z,11696
2017-11-07T09:30:34.589Z,12552
2017-11-07T09:31:47.316Z,12852
2017-11-07T09:33:00.756Z,12520
2017-11-07T09:34:14.599Z,12608
2017-11-07T09:35:27.950Z,13292
2017-11-07T09:36:40.536Z,13952
2017-11-07T09:37:53.326Z,14940
2017-11-07T09:39:06.940Z,18752
2017-11-07T09:40:20.105Z,16292
2017-11-07T09:41:31.782Z,15856
2017-11-07T09:42:45.225Z,16020
2017-11-07T09:43:58.797Z,17024
2017-11-07T09:45:12.232Z,14960
2017-11-07T09:46:25.695Z,15348
2017-11-07T09:47:38.813Z,16748
2017-11-07T09:48:52.277Z,19008
2017-11-07T09:50:05.696Z,19744
2017-11-07T09:51:19.271Z,21536
2017-11-07T09:52:32.933Z,43552
2017-11-07T09:53:45.669Z,30848
2017-11-07T09:54:59.217Z,44864
2017-11-07T09:56:12.403Z,33408
2017-11-07T09:57:26.674Z,37088
2017-11-07T09:58:40.253Z,47360
2017-11-07T09:59:53.699Z,53696
2017-11-07T10:01:06.745Z,36384
2017-11-07T10:02:20.876Z,40256
2017-11-07T10:03:33.626Z,38880
2017-11-07T10:04:47.282Z,39936
2017-11-07T10:06:01.495Z,30176
2017-11-07T10:07:15.034Z,38336
2017-11-07T10:08:28.906Z,44992
2017-11-07T10:09:42.771Z,48256
2017-11-07T10:10:56.255Z,34592
2017-11-07T10:12:09.797Z,37504
2017-11-07T10:13:23.736Z,37344
2017-11-07T10:14:36.792Z,38784
2017-11-07T10:15:49.434Z,44320
2017-11-07T10:17:03.507Z,47040
2017-11-07T10:18:15.215Z,35520
2017-11-07T10:19:28.605Z,40832
2017-11-07T10:20:40.920Z,49312
2017-11-07T10:21:54.310Z,33920
2017-11-07T10:23:07.745Z,28864
2017-11-07T10:24:21.014Z,39776
2017-11-07T10:25:35.163Z,46368
2017-11-07T10:26:49.270Z,32800
2017-11-07T10:28:02.338Z,54976
2017-11-07T10:29:15.834Z,42720
2017-11-07T10:30:29.943Z,51648
2017-11-07T10:31:43.940Z,49120
2017-11-07T10:32:57.262Z,38848
2017-11-07T10:34:11.382Z,39168
2017-11-07T10:35:25.003Z,47744
2017-11-07T10:36:38.803Z,46496
2017-11-07T10:37:52.814Z,45632
2017-11-07T10:39:06.319Z,59264
2017-11-07T10:40:19.795Z,54848
2017-11-07T10:41:33.505Z,57664
2017-11-07T10:42:46.724Z,84448
2017-11-07T10:44:00.766Z,76032
2017-11-07T10:45:13.138Z,81984
2017-11-07T10:46:27.388Z,65248
2017-11-07T10:47:39.902Z,64448
2017-11-07T10:48:52.890Z,65824
2017-11-07T10:50:05.906Z,49120
2017-11-07T10:51:19.321Z,53696
2017-11-07T10:52:32.265Z,44896
2017-11-07T10:53:45.834Z,79200
2017-11-07T10:54:59.833Z,61376
2017-11-07T10:56:12.428Z,73280
2017-11-07T10:57:26.553Z,68032
2017-11-07T10:58:40.688Z,81024
2017-11-07T10:59:54.327Z,68352
2017-11-07T11:01:07.243Z,55968
2017-11-07T11:02:20.789Z,36992
2017-11-07T11:03:33.750Z,47552
2017-11-07T11:04:46.714Z,61440
2017-11-07T11:06:00.672Z,65792
2017-11-07T11:07:13.364Z,71552
2017-11-07T11:08:27.380Z,56288
2017-11-07T11:09:40.376Z,49536
2017-11-07T11:10:53.264Z,44640
2017-11-07T11:12:06.266Z,45216
2017-11-07T11:13:19.668Z,53184
2017-11-07T11:14:32.569Z,33824
2017-11-07T11:15:46.577Z,36640
2017-11-07T11:17:00.072Z,41760
2017-11-07T11:18:14.286Z,31168
2017-11-07T11:19:28.254Z,36224
2017-11-07T11:20:42.549Z,30368
2017-11-07T11:21:56.407Z,34112
2017-11-07T11:23:09.878Z,37728
2017-11-07T11:24:23.842Z,35648
2017-11-07T11:25:37.954Z,31488
2017-11-07T11:26:51.528Z,33728
2017-11-07T11:28:05.468Z,37728
2017-11-07T11:29:17.943Z,36320
2017-11-07T11:30:30.675Z,41472
2017-11-07T11:31:44.931Z,45760
2017-11-07T11:32:58.671Z,46080
2017-11-07T11:34:12.190Z,40576
2017-11-07T11:35:25.727Z,46016
2017-11-07T11:36:39.144Z,48000
2017-11-07T11:37:51.545Z,49504
2017-11-07T11:39:04.985Z,46848
2017-11-07T11:40:17.210Z,55392
2017-11-07T11:41:31.351Z,48896
2017-11-07T11:42:44.510Z,42464
2017-11-07T11:43:58.440Z,38080
2017-11-07T11:45:11.600Z,37312
2017-11-07T11:46:25.519Z,41920
2017-11-07T11:47:39.610Z,39360
2017-11-07T11:48:53.651Z,41056
2017-11-07T11:50:06.397Z,43648
2017-11-07T11:51:19.983Z,40224
2017-11-07T11:52:32.935Z,46144
2017-11-07T11:53:45.684Z,46592
2017-11-07T11:54:56.894Z,45216
2017-11-07T11:56:08.577Z,42976
2017-11-07T11:57:21.558Z,42880
2017-11-07T11:58:34.311Z,44768
2017-11-07T11:59:47.092Z,40896
2017-11-07T12:00:58.760Z,47360
2017-11-07T12:02:11.543Z,40192
2017-11-07T12:03:23.822Z,42400
2017-11-07T12:04:36.661Z,42336
2017-11-07T12:05:49.509Z,46880
2017-11-07T12:07:01.725Z,49696
2017-11-07T12:08:13.968Z,51072
2017-11-07T12:09:27.774Z,53664
2017-11-07T12:10:40.695Z,49376
2017-11-07T12:11:54.366Z,49120
2017-11-07T12:13:07.260Z,56000
2017-11-07T12:14:20.326Z,54016
2017-11-07T12:15:33.317Z,52832
2017-11-07T12:16:46.978Z,67296
2017-11-07T12:18:01.098Z,74400
2017-11-07T12:19:14.858Z,61312
2017-11-07T12:20:29.088Z,51200
2017-11-07T12:21:43.319Z,51264
2017-11-07T12:22:57.667Z,53152
2017-11-07T12:24:10.800Z,55392
2017-11-07T12:25:24.508Z,60288
2017-11-07T12:26:38.617Z,54752
2017-11-07T12:27:52.715Z,55904
2017-11-07T12:29:06.359Z,55360
2017-11-07T12:30:20.028Z,54048
2017-11-07T12:31:33.756Z,53344
2017-11-07T12:32:46.762Z,55328
2017-11-07T12:33:59.886Z,52960
2017-11-07T12:35:14.004Z,50592
2017-11-07T12:36:28.217Z,49984
2017-11-07T12:37:40.664Z,50016
2017-11-07T12:38:54.338Z,49888
2017-11-07T12:40:08.039Z,51072
2017-11-07T12:41:21.702Z,52640
2017-11-07T12:42:36.045Z,53856
2017-11-07T12:43:50.549Z,54368
2017-11-07T12:45:03.542Z,51424
2017-11-07T12:46:17.763Z,51936
2017-11-07T12:47:32.237Z,51200
2017-11-07T12:48:46.554Z,53024
2017-11-07T12:50:00.147Z,57184
2017-11-07T12:51:14.434Z,69344
2017-11-07T12:52:28.248Z,55520
2017-11-07T12:53:41.728Z,63264
2017-11-07T12:54:55.885Z,49888
2017-11-07T12:56:09.622Z,53952
2017-11-07T12:57:23.460Z,54304
2017-11-07T12:58:37.484Z,67776
2017-11-07T12:59:51.544Z,68416
2017-11-07T13:01:05.148Z,75840
2017-11-07T13:02:18.012Z,65792
2017-11-07T13:03:31.637Z,67776
2017-11-07T13:04:44.853Z,46656
2017-11-07T13:05:58.011Z,62880
2017-11-07T13:07:12.104Z,51968
2017-11-07T13:08:26.555Z,48832
2017-11-07T13:09:40.237Z,80608
2017-11-07T13:10:52.135Z,51392
2017-11-07T13:12:04.553Z,48736
2017-11-07T13:13:18.088Z,47936
2017-11-07T13:14:31.761Z,49888
2017-11-07T13:15:45.664Z,80224
2017-11-07T13:16:59.121Z,64160
2017-11-07T13:18:12.901Z,58816
2017-11-07T13:19:27.307Z,52064
2017-11-07T13:20:40.954Z,52320
2017-11-07T13:21:55.309Z,55136
2017-11-07T13:23:08.935Z,46016
2017-11-07T13:24:23.166Z,46688
2017-11-07T13:25:38.140Z,52768
2017-11-07T13:26:51.921Z,75648
2017-11-07T13:28:05.446Z,78912
2017-11-07T13:29:17.982Z,77664
2017-11-07T13:30:31.674Z,77216
2017-11-07T13:31:44.952Z,73312
2017-11-07T13:32:58.811Z,75008
2017-11-07T13:34:13.080Z,80160
2017-11-07T13:35:27.752Z,81760
2017-11-07T13:36:41.656Z,44640
2017-11-07T13:37:56.021Z,58528
2017-11-07T13:39:09.585Z,54720
2017-11-07T13:40:23.910Z,85664
2017-11-07T13:41:39.124Z,85248
2017-11-07T13:42:52.799Z,81184
2017-11-07T13:44:05.593Z,50848
2017-11-07T13:45:19.815Z,75168
2017-11-07T13:46:34.166Z,58688
2017-11-07T13:47:48.235Z,44896
2017-11-07T13:49:02.363Z,43264
2017-11-07T13:50:15.054Z,49568
2017-11-07T13:51:28.351Z,85024
2017-11-07T13:52:42.680Z,44896
2017-11-07T13:53:56.122Z,45952
2017-11-07T13:55:09.920Z,91264
2017-11-07T13:56:24.076Z,57344
2017-11-07T13:57:37.797Z,42496
2017-11-07T13:58:52.134Z,42016
2017-11-07T14:00:05.856Z,61248
2017-11-07T14:01:20.079Z,87104
2017-11-07T14:02:34.236Z,71232
2017-11-07T14:03:47.831Z,81344
2017-11-07T14:05:01.857Z,78784
2017-11-07T14:06:15.898Z,69568
2017-11-07T14:07:28.273Z,45536
2017-11-07T14:08:40.722Z,44576
2017-11-07T14:09:54.383Z,51328
2017-11-07T14:11:07.954Z,63872
2017-11-07T14:12:21.591Z,81696
2017-11-07T14:13:35.313Z,77600
2017-11-07T14:14:49.516Z,74624
2017-11-07T14:16:03.325Z,51200
2017-11-07T14:17:16.854Z,47264
2017-11-07T14:18:30.960Z,52288
2017-11-07T14:19:44.675Z,75392
2017-11-07T14:20:58.725Z,46144
2017-11-07T14:22:12.533Z,49376
2017-11-07T14:23:25.997Z,47520
2017-11-07T14:24:39.332Z,49792
2017-11-07T14:25:53.139Z,68864
2017-11-07T14:27:06.102Z,58368
2017-11-07T14:28:20.115Z,80544
2017-11-07T14:29:33.958Z,61888
2017-11-07T14:30:47.228Z,62528
2017-11-07T14:32:00.686Z,48672
2017-11-07T14:33:14.994Z,40992
2017-11-07T14:34:28.139Z,50560
2017-11-07T14:35:42.289Z,59104
2017-11-07T14:36:55.079Z,50976
2017-11-07T14:38:08.102Z,52224
2017-11-07T14:39:22.320Z,82240
2017-11-07T14:40:35.544Z,54464
2017-11-07T14:41:49.294Z,94816
2017-11-07T14:43:02.184Z,60000
2017-11-07T14:44:15.259Z,63328
2017-11-07T14:45:28.776Z,75968
2017-11-07T14:46:42.768Z,73088
2017-11-07T14:47:55.444Z,50976
2017-11-07T14:49:08.492Z,53536
2017-11-07T14:50:22.046Z,75744
2017-11-07T14:51:34.415Z,61216
2017-11-07T14:52:48.497Z,59712
2017-11-07T14:54:01.818Z,38560
2017-11-07T14:55:15.696Z,82432
2017-11-07T14:56:28.446Z,80800
2017-11-07T14:57:42.383Z,77856
2017-11-07T14:58:56.660Z,75520
2017-11-07T15:00:10.650Z,76448
2017-11-07T15:01:24.146Z,74368
2017-11-07T15:02:37.937Z,77600
2017-11-07T15:03:51.198Z,73248
2017-11-07T15:05:05.250Z,76992
2017-11-07T15:06:18.206Z,82336
2017-11-07T15:07:31.061Z,84608
2017-11-07T15:08:44.942Z,54208
2017-11-07T15:09:58.479Z,63296
2017-11-07T15:11:12.029Z,67360
2017-11-07T15:12:26.048Z,54496
2017-11-07T15:13:40.085Z,55360
2017-11-07T15:14:53.274Z,76448
2017-11-07T15:16:06.905Z,89472
2017-11-07T15:17:19.669Z,52800
2017-11-07T15:18:32.881Z,53248
2017-11-07T15:19:44.593Z,69088
2017-11-07T15:20:57.578Z,75008
2017-11-07T15:22:09.925Z,52128
2017-11-07T15:23:22.952Z,43840
2017-11-07T15:24:36.532Z,40512
2017-11-07T15:25:49.882Z,42432
2017-11-07T15:27:03.114Z,75072
2017-11-07T15:28:16.033Z,55616
2017-11-07T15:29:30.102Z,58272
2017-11-07T15:30:43.326Z,60128
2017-11-07T15:31:57.651Z,50720
2017-11-07T15:33:11.067Z,40736
2017-11-07T15:34:24.870Z,37504
2017-11-07T15:35:38.373Z,39200
2017-11-07T15:36:51.924Z,43968
2017-11-07T15:38:06.103Z,63872
2017-11-07T15:39:20.253Z,46752
2017-11-07T15:40:33.444Z,42176
2017-11-07T15:41:46.603Z,41728
2017-11-07T15:42:59.507Z,46208
2017-11-07T15:44:13.877Z,52256
2017-11-07T15:45:26.830Z,49088
2017-11-07T15:46:40.370Z,45664
2017-11-07T15:47:53.942Z,45696
2017-11-07T15:49:08.196Z,47552
2017-11-07T15:50:21.899Z,51168
2017-11-07T15:51:34.724Z,59456
2017-11-07T15:52:47.676Z,53216
2017-11-07T15:54:02.096Z,111808
2017-11-07T15:55:14.571Z,58336
2017-11-07T15:56:28.817Z,45696
2017-11-07T15:57:42.472Z,42880
2017-11-07T15:58:55.400Z,42624
2017-11-07T16:00:09.696Z,43104
2017-11-07T16:01:22.204Z,47872
2017-11-07T16:02:35.857Z,53664
2017-11-07T16:03:50.582Z,92704
2017-11-07T16:05:04.256Z,106688
2017-11-07T16:06:18.850Z,86752
2017-11-07T16:07:32.452Z,68064
2017-11-07T16:08:45.591Z,68032
2017-11-07T16:09:58.956Z,59328
2017-11-07T16:11:13.285Z,58240
2017-11-07T16:12:26.948Z,54720
2017-11-07T16:13:40.731Z,59584
2017-11-07T16:14:54.486Z,73984
2017-11-07T16:16:08.816Z,76384
2017-11-07T16:17:21.743Z,76768
2017-11-07T16:18:34.838Z,73056
2017-11-07T16:19:48.628Z,61664
2017-11-07T16:21:03.160Z,75616
2017-11-07T16:22:16.668Z,114368
2017-11-07T16:23:30.152Z,99168
2017-11-07T16:24:43.285Z,116160
2017-11-07T16:25:56.787Z,73920
2017-11-07T16:27:11.052Z,62176
2017-11-07T16:28:24.228Z,60960
2017-11-07T16:29:37.640Z,58272
2017-11-07T16:30:50.592Z,90656
2017-11-07T16:32:04.027Z,69408
2017-11-07T16:33:17.725Z,47264
2017-11-07T16:34:31.919Z,52128
2017-11-07T16:35:45.651Z,61312
2017-11-07T16:36:59.406Z,48768
2017-11-07T16:38:13.510Z,44576
2017-11-07T16:39:26.336Z,58944
2017-11-07T16:40:40.551Z,68320
2017-11-07T16:41:54.252Z,88896
2017-11-07T16:43:07.895Z,65984
2017-11-07T16:44:22.062Z,77984
2017-11-07T16:45:35.597Z,59776
2017-11-07T16:46:48.535Z,69856
2017-11-07T16:48:02.709Z,75616
2017-11-07T16:49:16.990Z,115168